LEAB/ABC METAR and TAF weather

Enter ICAO airport designator
Station Type Date Time Source
LEAB METAR 2021/03/03 02:30 UTC NOAA

LEAB 030230Z 03003KT 010V070 7000 BKN013 08/08 Q1029 NOSIG


Station Type Date Time Source
LEAB Decoded METAR 2021/03/03 02:30 UTC NOAA

Albacete / Los Llanos, Spain (LEAB) 38-57N 001-51W 704M
Mar 02, 2021 - 09:30 PM EST / 2021.03.03 0230 UTC
Wind: from the NNE (030 degrees) at 3 MPH (3 KT) (direction variable):0
Visibility: 4 mile(s):0
Sky conditions: mostly cloudy
Temperature: 46 F (8 C)
Dew Point: 46 F (8 C)
Relative Humidity: 100%
Pressure (altimeter): 30.39 in. Hg (1029 hPa)
ob: LEAB 030230Z 03003KT 010V070 7000 BKN013 08/08 Q1029 NOSIG
cycle: 2

Station Type Date Time Source
LEAB TAF 2021/03/02 18:27 UTC NOAA

TAF LEAB 021700Z 0218/0318 09010KT 9999 BKN020 TX15/0315Z TN06/0306Z PROB40 0300/0309 BKN008 PROB30 0302/0308 0600 FG VV001

Example: see airport list